Adell, Wisconsin
Current Conditions -  °F | °C
As of 5:53 PM on Friday 31 Oct 2014 (Local Time) from KSBM Reporting Station
Broken Clouds Broken Clouds  
Wind Chill: 27°   Ceiling: 5000
Heat Index: 35°   Visibility: 10mi
Dew Point: 18°   Wind: 10mph
Humidity: 50%   Direction: 360°N
Pressure: 30.36"   Gusts: 23mph
Location:  43.62°N, 87.95°W
Report Text: KSBM 312253Z AUTO 36009G20KT 10SM BKN050 02/M08 A3036 RMK AO2 PK WND 36028/2219 SLP288 T00171078
Loading
Personal Weather Stations






























Interactive Weather Map
Tropical Storm Tracking
New forecast layout! Learn more

10-Day Weather Forecast

Advertisements
Track Severe Weather on mobile